sensor_id;sensor_type;location;lat;lon;timestamp;temperature;humidity
44579;DHT22;37422;51.402;0.016;2022-08-21T00:00:31;16.90;98.10
44579;DHT22;37422;51.402;0.016;2022-08-21T00:03:05;16.90;98.60
44579;DHT22;37422;51.402;0.016;2022-08-21T00:05:37;16.80;98.10
44579;DHT22;37422;51.402;0.016;2022-08-21T00:08:13;16.80;98.10
44579;DHT22;37422;51.402;0.016;2022-08-21T00:10:44;16.80;98.20
44579;DHT22;37422;51.402;0.016;2022-08-21T00:13:13;16.80;98.20
44579;DHT22;37422;51.402;0.016;2022-08-21T00:15:47;16.70;98.20
44579;DHT22;37422;51.402;0.016;2022-08-21T00:18:16;16.70;98.30
44579;DHT22;37422;51.402;0.016;2022-08-21T00:20:45;16.70;98.40
44579;DHT22;37422;51.402;0.016;2022-08-21T00:23:19;16.60;98.50
44579;DHT22;37422;51.402;0.016;2022-08-21T00:25:49;16.60;98.70
44579;DHT22;37422;51.402;0.016;2022-08-21T00:28:17;16.60;98.80
44579;DHT22;37422;51.402;0.016;2022-08-21T00:30:53;16.50;98.90
44579;DHT22;37422;51.402;0.016;2022-08-21T00:33:23;16.50;98.90
44579;DHT22;37422;51.402;0.016;2022-08-21T00:35:55;16.50;98.90
44579;DHT22;37422;51.402;0.016;2022-08-21T00:38:25;16.50;99.00
44579;DHT22;37422;51.402;0.016;2022-08-21T00:40:59;16.50;99.20
44579;DHT22;37422;51.402;0.016;2022-08-21T00:43:47;16.50;99.20
44579;DHT22;37422;51.402;0.016;2022-08-21T00:46:17;16.40;99.20
44579;DHT22;37422;51.402;0.016;2022-08-21T00:48:48;16.50;99.30
44579;DHT22;37422;51.402;0.016;2022-08-21T00:51:31;16.50;99.30
44579;DHT22;37422;51.402;0.016;2022-08-21T00:54:05;16.40;99.30
44579;DHT22;37422;51.402;0.016;2022-08-21T00:56:56;16.40;99.30
44579;DHT22;37422;51.402;0.016;2022-08-21T00:59:28;16.40;99.50
44579;DHT22;37422;51.402;0.016;2022-08-21T01:01:58;16.40;99.60
44579;DHT22;37422;51.402;0.016;2022-08-21T01:04:26;16.30;99.60
44579;DHT22;37422;51.402;0.016;2022-08-21T01:06:56;16.40;99.70
44579;DHT22;37422;51.402;0.016;2022-08-21T01:09:26;16.40;99.70
44579;DHT22;37422;51.402;0.016;2022-08-21T01:11:54;16.30;99.70
44579;DHT22;37422;51.402;0.016;2022-08-21T01:14:23;16.30;99.90
44579;DHT22;37422;51.402;0.016;2022-08-21T01:16:52;16.30;99.90
44579;DHT22;37422;51.402;0.016;2022-08-21T01:19:25;16.20;99.90
44579;DHT22;37422;51.402;0.016;2022-08-21T01:21:54;16.20;99.90
44579;DHT22;37422;51.402;0.016;2022-08-21T01:24:23;16.20;99.90
44579;DHT22;37422;51.402;0.016;2022-08-21T01:26:54;16.20;99.90
44579;DHT22;37422;51.402;0.016;2022-08-21T01:29:36;16.20;99.90
44579;DHT22;37422;51.402;0.016;2022-08-21T01:32:14;16.20;99.90
44579;DHT22;37422;51.402;0.016;2022-08-21T01:34:45;16.20;99.90
44579;DHT22;37422;51.402;0.016;2022-08-21T01:37:15;16.10;99.90
44579;DHT22;37422;51.402;0.016;2022-08-21T01:39:44;16.10;99.90
44579;DHT22;37422;51.402;0.016;2022-08-21T01:42:13;16.10;99.90
44579;DHT22;37422;51.402;0.016;2022-08-21T01:44:42;16.10;99.90
44579;DHT22;37422;51.402;0.016;2022-08-21T01:47:12;16.00;99.90
44579;DHT22;37422;51.402;0.016;2022-08-21T01:49:41;16.00;99.90
44579;DHT22;37422;51.402;0.016;2022-08-21T01:52:15;16.00;99.90
44579;DHT22;37422;51.402;0.016;2022-08-21T01:54:43;16.00;99.90
44579;DHT22;37422;51.402;0.016;2022-08-21T01:57:22;16.00;99.90
44579;DHT22;37422;51.402;0.016;2022-08-21T01:59:53;16.00;99.90
44579;DHT22;37422;51.402;0.016;2022-08-21T02:02:21;16.00;99.90
44579;DHT22;37422;51.402;0.016;2022-08-21T02:04:51;16.00;99.90
44579;DHT22;37422;51.402;0.016;2022-08-21T02:07:19;16.00;99.90
44579;DHT22;37422;51.402;0.016;2022-08-21T02:09:46;16.00;99.90
44579;DHT22;37422;51.402;0.016;2022-08-21T02:12:14;16.00;99.90
44579;DHT22;37422;51.402;0.016;2022-08-21T02:14:45;16.00;99.90
44579;DHT22;37422;51.402;0.016;2022-08-21T02:17:13;16.00;99.90
44579;DHT22;37422;51.402;0.016;2022-08-21T02:19:41;16.00;99.90
44579;DHT22;37422;51.402;0.016;2022-08-21T02:22:18;15.90;99.90
44579;DHT22;37422;51.402;0.016;2022-08-21T02:24:46;16.00;99.90
44579;DHT22;37422;51.402;0.016;2022-08-21T02:27:25;15.90;99.90
44579;DHT22;37422;51.402;0.016;2022-08-21T02:29:56;16.00;99.90
44579;DHT22;37422;51.402;0.016;2022-08-21T02:32:32;16.00;99.90
44579;DHT22;37422;51.402;0.016;2022-08-21T02:35:00;15.90;99.90
44579;DHT22;37422;51.402;0.016;2022-08-21T02:37:53;16.00;99.90
44579;DHT22;37422;51.402;0.016;2022-08-21T02:40:27;16.00;99.90
44579;DHT22;37422;51.402;0.016;2022-08-21T02:42:57;16.00;99.90
44579;DHT22;37422;51.402;0.016;2022-08-21T02:45:26;16.00;99.90
44579;DHT22;37422;51.402;0.016;2022-08-21T02:47:58;16.00;99.90
44579;DHT22;37422;51.402;0.016;2022-08-21T02:50:32;16.00;99.90
44579;DHT22;37422;51.402;0.016;2022-08-21T02:53:01;16.00;99.90
44579;DHT22;37422;51.402;0.016;2022-08-21T02:55:30;16.00;99.90
44579;DHT22;37422;51.402;0.016;2022-08-21T02:58:08;16.00;99.90
44579;DHT22;37422;51.402;0.016;2022-08-21T03:00:40;16.10;99.90
44579;DHT22;37422;51.402;0.016;2022-08-21T03:03:12;16.00;99.90
44579;DHT22;37422;51.402;0.016;2022-08-21T03:05:43;16.00;99.90
44579;DHT22;37422;51.402;0.016;2022-08-21T03:08:12;16.00;99.90
44579;DHT22;37422;51.402;0.016;2022-08-21T03:10:50;16.00;99.90
44579;DHT22;37422;51.402;0.016;2022-08-21T03:13:21;16.00;99.90
44579;DHT22;37422;51.402;0.016;2022-08-21T03:15:49;16.00;99.90
44579;DHT22;37422;51.402;0.016;2022-08-21T03:18:19;15.90;99.90
44579;DHT22;37422;51.402;0.016;2022-08-21T03:20:47;16.90;99.90
44579;DHT22;37422;51.402;0.016;2022-08-21T03:23:18;15.90;99.90
44579;DHT22;37422;51.402;0.016;2022-08-21T03:25:47;15.90;99.90
44579;DHT22;37422;51.402;0.016;2022-08-21T03:28:19;15.80;99.90
44579;DHT22;37422;51.402;0.016;2022-08-21T03:30:51;15.50;99.90
44579;DHT22;37422;51.402;0.016;2022-08-21T03:33:22;15.80;99.90
44579;DHT22;37422;51.402;0.016;2022-08-21T03:36:06;15.70;99.90
44579;DHT22;37422;51.402;0.016;2022-08-21T03:38:37;15.70;99.90
44579;DHT22;37422;51.402;0.016;2022-08-21T03:41:18;15.70;99.90
44579;DHT22;37422;51.402;0.016;2022-08-21T03:43:46;15.70;99.90
44579;DHT22;37422;51.402;0.016;2022-08-21T03:46:14;15.70;99.90
44579;DHT22;37422;51.402;0.016;2022-08-21T03:48:45;15.60;99.90
44579;DHT22;37422;51.402;0.016;2022-08-21T03:51:13;15.60;99.90
44579;DHT22;37422;51.402;0.016;2022-08-21T03:53:41;15.60;99.90
44579;DHT22;37422;51.402;0.016;2022-08-21T03:56:08;15.60;99.90
44579;DHT22;37422;51.402;0.016;2022-08-21T03:58:37;15.50;99.90
44579;DHT22;37422;51.402;0.016;2022-08-21T04:01:08;15.50;99.90
44579;DHT22;37422;51.402;0.016;2022-08-21T04:03:46;15.50;99.90
44579;DHT22;37422;51.402;0.016;2022-08-21T04:06:14;14.60;99.90
44579;DHT22;37422;51.402;0.016;2022-08-21T04:08:41;15.40;99.90
44579;DHT22;37422;51.402;0.016;2022-08-21T04:11:11;15.40;99.90
44579;DHT22;37422;51.402;0.016;2022-08-21T04:13:42;15.40;99.90
44579;DHT22;37422;51.402;0.016;2022-08-21T04:16:11;15.40;99.90
44579;DHT22;37422;51.402;0.016;2022-08-21T04:18:42;15.30;99.90
44579;DHT22;37422;51.402;0.016;2022-08-21T04:21:15;15.30;99.90
44579;DHT22;37422;51.402;0.016;2022-08-21T04:23:43;15.30;99.90
44579;DHT22;37422;51.402;0.016;2022-08-21T04:26:11;15.20;99.90
44579;DHT22;37422;51.402;0.016;2022-08-21T04:28:39;16.40;99.90
44579;DHT22;37422;51.402;0.016;2022-08-21T04:31:07;15.20;99.90
44579;DHT22;37422;51.402;0.016;2022-08-21T04:33:35;15.20;99.90
44579;DHT22;37422;51.402;0.016;2022-08-21T04:36:03;15.20;99.90
44579;DHT22;37422;51.402;0.016;2022-08-21T04:38:31;15.10;99.90
44579;DHT22;37422;51.402;0.016;2022-08-21T04:41:04;15.10;99.90
44579;DHT22;37422;51.402;0.016;2022-08-21T04:43:34;15.20;99.90
44579;DHT22;37422;51.402;0.016;2022-08-21T04:46:04;15.10;99.90
44579;DHT22;37422;51.402;0.016;2022-08-21T04:48:32;15.10;99.90
44579;DHT22;37422;51.402;0.016;2022-08-21T04:51:07;15.10;99.90
44579;DHT22;37422;51.402;0.016;2022-08-21T04:53:39;15.00;99.90
44579;DHT22;37422;51.402;0.016;2022-08-21T04:56:14;15.00;99.90
44579;DHT22;37422;51.402;0.016;2022-08-21T04:58:45;15.00;99.90
44579;DHT22;37422;51.402;0.016;2022-08-21T05:01:21;15.10;99.90
44579;DHT22;37422;51.402;0.016;2022-08-21T05:03:55;15.10;99.90
44579;DHT22;37422;51.402;0.016;2022-08-21T05:06:28;15.10;99.90
44579;DHT22;37422;51.402;0.016;2022-08-21T05:08:59;15.10;99.90
44579;DHT22;37422;51.402;0.016;2022-08-21T05:11:29;15.10;99.90
44579;DHT22;37422;51.402;0.016;2022-08-21T05:13:58;15.10;99.90
44579;DHT22;37422;51.402;0.016;2022-08-21T05:16:26;15.00;99.90
44579;DHT22;37422;51.402;0.016;2022-08-21T05:19:05;15.00;99.90
44579;DHT22;37422;51.402;0.016;2022-08-21T05:21:34;15.00;99.90
44579;DHT22;37422;51.402;0.016;2022-08-21T05:24:03;15.00;99.90
44579;DHT22;37422;51.402;0.016;2022-08-21T05:26:30;15.00;99.90
44579;DHT22;37422;51.402;0.016;2022-08-21T05:28:59;15.00;99.90
44579;DHT22;37422;51.402;0.016;2022-08-21T05:31:31;15.10;99.90
44579;DHT22;37422;51.402;0.016;2022-08-21T05:33:59;15.10;99.90
44579;DHT22;37422;51.402;0.016;2022-08-21T05:36:30;15.20;99.90
44579;DHT22;37422;51.402;0.016;2022-08-21T05:38:59;15.30;99.90
44579;DHT22;37422;51.402;0.016;2022-08-21T05:41:26;15.40;99.90
44579;DHT22;37422;51.402;0.016;2022-08-21T05:43:54;15.50;99.90
44579;DHT22;37422;51.402;0.016;2022-08-21T05:46:22;15.50;99.90
44579;DHT22;37422;51.402;0.016;2022-08-21T05:48:50;15.60;99.90
44579;DHT22;37422;51.402;0.016;2022-08-21T05:51:17;15.60;99.90
44579;DHT22;37422;51.402;0.016;2022-08-21T05:53:45;15.60;99.90
44579;DHT22;37422;51.402;0.016;2022-08-21T05:56:14;15.70;99.90
44579;DHT22;37422;51.402;0.016;2022-08-21T05:58:44;15.70;99.90
44579;DHT22;37422;51.402;0.016;2022-08-21T06:01:12;15.80;99.90
44579;DHT22;37422;51.402;0.016;2022-08-21T06:03:41;15.80;99.90
44579;DHT22;37422;51.402;0.016;2022-08-21T06:06:10;15.90;99.90
44579;DHT22;37422;51.402;0.016;2022-08-21T06:08:38;16.00;99.90
44579;DHT22;37422;51.402;0.016;2022-08-21T06:11:09;16.00;99.90
44579;DHT22;37422;51.402;0.016;2022-08-21T06:13:37;16.10;99.90
44579;DHT22;37422;51.402;0.016;2022-08-21T06:16:14;16.20;99.90
44579;DHT22;37422;51.402;0.016;2022-08-21T06:18:44;16.30;99.90
44579;DHT22;37422;51.402;0.016;2022-08-21T06:21:12;16.30;99.90
44579;DHT22;37422;51.402;0.016;2022-08-21T06:23:41;16.40;99.90
44579;DHT22;37422;51.402;0.016;2022-08-21T06:26:11;16.40;99.90
44579;DHT22;37422;51.402;0.016;2022-08-21T06:28:42;16.50;99.90
44579;DHT22;37422;51.402;0.016;2022-08-21T06:31:19;16.50;99.90
44579;DHT22;37422;51.402;0.016;2022-08-21T06:33:47;16.60;99.90
44579;DHT22;37422;51.402;0.016;2022-08-21T06:36:16;16.60;99.90
44579;DHT22;37422;51.402;0.016;2022-08-21T06:38:46;16.70;99.90
44579;DHT22;37422;51.402;0.016;2022-08-21T06:41:24;16.80;99.90
44579;DHT22;37422;51.402;0.016;2022-08-21T06:43:54;16.90;99.90
44579;DHT22;37422;51.402;0.016;2022-08-21T06:46:23;17.00;99.90
44579;DHT22;37422;51.402;0.016;2022-08-21T06:48:51;17.10;99.90
44579;DHT22;37422;51.402;0.016;2022-08-21T06:51:21;17.20;99.90
44579;DHT22;37422;51.402;0.016;2022-08-21T06:53:49;17.30;99.90
44579;DHT22;37422;51.402;0.016;2022-08-21T06:56:17;17.40;99.90
44579;DHT22;37422;51.402;0.016;2022-08-21T06:58:46;17.60;99.90
44579;DHT22;37422;51.402;0.016;2022-08-21T07:01:14;17.70;99.90
44579;DHT22;37422;51.402;0.016;2022-08-21T07:03:43;17.80;99.90
44579;DHT22;37422;51.402;0.016;2022-08-21T07:06:11;17.90;99.90
44579;DHT22;37422;51.402;0.016;2022-08-21T07:08:42;18.00;99.90
44579;DHT22;37422;51.402;0.016;2022-08-21T07:11:17;18.10;99.90
44579;DHT22;37422;51.402;0.016;2022-08-21T07:13:45;18.10;99.90
44579;DHT22;37422;51.402;0.016;2022-08-21T07:16:14;18.30;99.90
44579;DHT22;37422;51.402;0.016;2022-08-21T07:18:42;18.40;99.90
44579;DHT22;37422;51.402;0.016;2022-08-21T07:21:10;18.60;99.70
44579;DHT22;37422;51.402;0.016;2022-08-21T07:23:41;18.80;99.90
44579;DHT22;37422;51.402;0.016;2022-08-21T07:26:10;18.90;99.90
44579;DHT22;37422;51.402;0.016;2022-08-21T07:28:41;19.10;99.60
44579;DHT22;37422;51.402;0.016;2022-08-21T07:31:14;19.20;99.30
44579;DHT22;37422;51.402;0.016;2022-08-21T07:33:44;19.20;98.90
44579;DHT22;37422;51.402;0.016;2022-08-21T07:36:12;19.20;98.50
44579;DHT22;37422;51.402;0.016;2022-08-21T07:38:51;19.20;98.40
44579;DHT22;37422;51.402;0.016;2022-08-21T07:41:25;19.20;98.10
44579;DHT22;37422;51.402;0.016;2022-08-21T07:43:54;19.20;98.30
44579;DHT22;37422;51.402;0.016;2022-08-21T07:46:23;19.20;97.80
44579;DHT22;37422;51.402;0.016;2022-08-21T07:48:52;19.30;98.20
44579;DHT22;37422;51.402;0.016;2022-08-21T07:51:23;19.40;98.00
44579;DHT22;37422;51.402;0.016;2022-08-21T07:53:53;19.50;98.00
44579;DHT22;37422;51.402;0.016;2022-08-21T07:56:21;19.70;97.90
44579;DHT22;37422;51.402;0.016;2022-08-21T07:58:51;19.80;97.60
44579;DHT22;37422;51.402;0.016;2022-08-21T08:01:19;19.90;97.30
44579;DHT22;37422;51.402;0.016;2022-08-21T08:03:47;20.00;97.30
44579;DHT22;37422;51.402;0.016;2022-08-21T08:06:15;20.10;97.30
44579;DHT22;37422;51.402;0.016;2022-08-21T08:08:46;20.20;96.80
44579;DHT22;37422;51.402;0.016;2022-08-21T08:11:14;20.40;96.80
44579;DHT22;37422;51.402;0.016;2022-08-21T08:13:50;20.50;95.90
44579;DHT22;37422;51.402;0.016;2022-08-21T08:16:20;20.50;95.80
44579;DHT22;37422;51.402;0.016;2022-08-21T08:18:50;20.50;95.90
44579;DHT22;37422;51.402;0.016;2022-08-21T08:21:19;20.60;95.80
44579;DHT22;37422;51.402;0.016;2022-08-21T08:23:48;20.50;95.50
44579;DHT22;37422;51.402;0.016;2022-08-21T08:26:16;20.50;95.10
44579;DHT22;37422;51.402;0.016;2022-08-21T08:28:44;20.50;95.40
44579;DHT22;37422;51.402;0.016;2022-08-21T08:31:14;20.50;95.30
44579;DHT22;37422;51.402;0.016;2022-08-21T08:33:46;20.40;95.20
44579;DHT22;37422;51.402;0.016;2022-08-21T08:36:16;20.40;95.20
44579;DHT22;37422;51.402;0.016;2022-08-21T08:38:46;20.40;95.10
44579;DHT22;37422;51.402;0.016;2022-08-21T08:41:16;20.40;95.10
44579;DHT22;37422;51.402;0.016;2022-08-21T08:43:50;20.40;95.10
44579;DHT22;37422;51.402;0.016;2022-08-21T08:46:30;20.40;94.80
44579;DHT22;37422;51.402;0.016;2022-08-21T08:49:06;20.40;94.80
44579;DHT22;37422;51.402;0.016;2022-08-21T08:54:11;20.40;94.40
44579;DHT22;37422;51.402;0.016;2022-08-21T08:56:40;20.50;94.70
44579;DHT22;37422;51.402;0.016;2022-08-21T08:59:37;20.60;94.80
44579;DHT22;37422;51.402;0.016;2022-08-21T09:02:13;20.80;94.10
44579;DHT22;37422;51.402;0.016;2022-08-21T09:04:42;21.10;94.70
44579;DHT22;37422;51.402;0.016;2022-08-21T09:07:38;21.40;94.60
44579;DHT22;37422;51.402;0.016;2022-08-21T09:15:48;23.00;92.80
44579;DHT22;37422;51.402;0.016;2022-08-21T09:18:33;23.50;92.00
44579;DHT22;37422;51.402;0.016;2022-08-21T09:27:14;25.30;90.20
44579;DHT22;37422;51.402;0.016;2022-08-21T09:29:48;25.80;86.00
44579;DHT22;37422;51.402;0.016;2022-08-21T09:32:28;26.00;85.70
44579;DHT22;37422;51.402;0.016;2022-08-21T09:35:10;26.10;83.40
44579;DHT22;37422;51.402;0.016;2022-08-21T09:38:05;26.10;84.20
44579;DHT22;37422;51.402;0.016;2022-08-21T09:43:24;26.40;81.70
44579;DHT22;37422;51.402;0.016;2022-08-21T09:46:19;26.60;75.20
44579;DHT22;37422;51.402;0.016;2022-08-21T09:48:54;26.70;76.10
44579;DHT22;37422;51.402;0.016;2022-08-21T09:51:27;27.10;77.30
44579;DHT22;37422;51.402;0.016;2022-08-21T09:59:40;28.70;76.00
44579;DHT22;37422;51.402;0.016;2022-08-21T10:02:35;29.30;73.40
44579;DHT22;37422;51.402;0.016;2022-08-21T10:05:14;29.70;64.70
44579;DHT22;37422;51.402;0.016;2022-08-21T10:07:42;29.90;68.10
44579;DHT22;37422;51.402;0.016;2022-08-21T10:10:26;30.00;69.60
44579;DHT22;37422;51.402;0.016;2022-08-21T10:13:11;30.00;59.60
44579;DHT22;37422;51.402;0.016;2022-08-21T10:21:26;30.10;61.50
44579;DHT22;37422;51.402;0.016;2022-08-21T10:24:12;30.50;60.40
44579;DHT22;37422;51.402;0.016;2022-08-21T10:30:36;30.50;58.80
44579;DHT22;37422;51.402;0.016;2022-08-21T10:47:35;29.00;57.40
44579;DHT22;37422;51.402;0.016;2022-08-21T10:58:28;27.30;60.40
44579;DHT22;37422;51.402;0.016;2022-08-21T11:01:27;27.00;60.60
44579;DHT22;37422;51.402;0.016;2022-08-21T11:07:41;26.70;60.00
44579;DHT22;37422;51.402;0.016;2022-08-21T11:10:25;26.50;59.90
44579;DHT22;37422;51.402;0.016;2022-08-21T11:13:08;26.40;60.70
44579;DHT22;37422;51.402;0.016;2022-08-21T11:16:16;26.30;60.90
44579;DHT22;37422;51.402;0.016;2022-08-21T11:18:55;26.30;61.70
44579;DHT22;37422;51.402;0.016;2022-08-21T11:21:39;26.40;61.30
44579;DHT22;37422;51.402;0.016;2022-08-21T11:24:42;26.40;61.10
44579;DHT22;37422;51.402;0.016;2022-08-21T11:27:33;26.40;60.40
44579;DHT22;37422;51.402;0.016;2022-08-21T11:30:05;26.40;61.40
44579;DHT22;37422;51.402;0.016;2022-08-21T11:35:51;26.20;61.70
44579;DHT22;37422;51.402;0.016;2022-08-21T11:39:30;26.00;62.40
44579;DHT22;37422;51.402;0.016;2022-08-21T11:47:58;25.70;62.40
44579;DHT22;37422;51.402;0.016;2022-08-21T11:50:30;25.60;62.80
44579;DHT22;37422;51.402;0.016;2022-08-21T11:56:12;25.50;62.80
44579;DHT22;37422;51.402;0.016;2022-08-21T11:59:32;25.40;62.60
44579;DHT22;37422;51.402;0.016;2022-08-21T12:01:43;25.40;63.20
44579;DHT22;37422;51.402;0.016;2022-08-21T12:04:32;25.40;63.30
44579;DHT22;37422;51.402;0.016;2022-08-21T12:07:15;25.50;62.80
44579;DHT22;37422;51.402;0.016;2022-08-21T12:09:55;25.50;62.60
44579;DHT22;37422;51.402;0.016;2022-08-21T12:12:37;25.50;62.40
44579;DHT22;37422;51.402;0.016;2022-08-21T12:18:05;25.90;62.70
44579;DHT22;37422;51.402;0.016;2022-08-21T12:20:38;26.00;61.90
44579;DHT22;37422;51.402;0.016;2022-08-21T12:23:24;26.10;62.10
44579;DHT22;37422;51.402;0.016;2022-08-21T12:29:31;26.10;62.70
44579;DHT22;37422;51.402;0.016;2022-08-21T12:32:04;26.10;63.10
44579;DHT22;37422;51.402;0.016;2022-08-21T12:35:14;26.10;62.80
44579;DHT22;37422;51.402;0.016;2022-08-21T12:38:12;26.20;62.70
44579;DHT22;37422;51.402;0.016;2022-08-21T12:40:52;26.30;62.50
44579;DHT22;37422;51.402;0.016;2022-08-21T12:43:31;26.60;62.10
44579;DHT22;37422;51.402;0.016;2022-08-21T12:46:02;26.90;62.30
44579;DHT22;37422;51.402;0.016;2022-08-21T12:48:58;27.50;62.80
44579;DHT22;37422;51.402;0.016;2022-08-21T12:51:56;27.50;60.90
44579;DHT22;37422;51.402;0.016;2022-08-21T12:54:31;27.70;60.30
44579;DHT22;37422;51.402;0.016;2022-08-21T12:57:06;27.80;60.70
44579;DHT22;37422;51.402;0.016;2022-08-21T12:59:39;27.80;60.30
44579;DHT22;37422;51.402;0.016;2022-08-21T13:02:22;27.80;60.10
44579;DHT22;37422;51.402;0.016;2022-08-21T13:04:54;27.80;59.60
44579;DHT22;37422;51.402;0.016;2022-08-21T13:07:32;27.80;60.40
44579;DHT22;37422;51.402;0.016;2022-08-21T13:10:28;27.80;59.50
44579;DHT22;37422;51.402;0.016;2022-08-21T13:13:09;28.10;59.60
44579;DHT22;37422;51.402;0.016;2022-08-21T13:15:40;28.50;59.90
44579;DHT22;37422;51.402;0.016;2022-08-21T13:18:26;28.90;59.80
44579;DHT22;37422;51.402;0.016;2022-08-21T13:21:06;29.10;58.50
44579;DHT22;37422;51.402;0.016;2022-08-21T13:23:35;29.00;58.20
44579;DHT22;37422;51.402;0.016;2022-08-21T13:26:18;28.80;59.00
44579;DHT22;37422;51.402;0.016;2022-08-21T13:28:47;28.60;58.50
44579;DHT22;37422;51.402;0.016;2022-08-21T13:31:17;28.80;58.80
44579;DHT22;37422;51.402;0.016;2022-08-21T13:33:45;29.30;56.80
44579;DHT22;37422;51.402;0.016;2022-08-21T13:36:29;29.90;58.50
44579;DHT22;37422;51.402;0.016;2022-08-21T13:38:59;30.50;56.10
44579;DHT22;37422;51.402;0.016;2022-08-21T13:41:31;30.90;56.50
44579;DHT22;37422;51.402;0.016;2022-08-21T13:44:19;31.00;54.40
44579;DHT22;37422;51.402;0.016;2022-08-21T13:46:49;31.20;54.10
44579;DHT22;37422;51.402;0.016;2022-08-21T13:49:26;31.30;55.00
44579;DHT22;37422;51.402;0.016;2022-08-21T13:51:57;31.70;54.80
44579;DHT22;37422;51.402;0.016;2022-08-21T13:54:35;32.30;55.30
44579;DHT22;37422;51.402;0.016;2022-08-21T13:57:04;32.80;54.50
44579;DHT22;37422;51.402;0.016;2022-08-21T13:59:34;33.20;54.30
44579;DHT22;37422;51.402;0.016;2022-08-21T14:02:15;33.50;54.00
44579;DHT22;37422;51.402;0.016;2022-08-21T14:04:57;33.70;51.80
44579;DHT22;37422;51.402;0.016;2022-08-21T14:07:38;33.70;51.40
44579;DHT22;37422;51.402;0.016;2022-08-21T14:10:13;33.40;51.30
44579;DHT22;37422;51.402;0.016;2022-08-21T14:12:50;33.00;51.30
44579;DHT22;37422;51.402;0.016;2022-08-21T14:15:23;32.80;51.60
44579;DHT22;37422;51.402;0.016;2022-08-21T14:18:17;32.60;51.30
44579;DHT22;37422;51.402;0.016;2022-08-21T14:20:45;32.70;51.50
44579;DHT22;37422;51.402;0.016;2022-08-21T14:23:25;33.10;51.90
44579;DHT22;37422;51.402;0.016;2022-08-21T14:25:53;33.50;50.70
44579;DHT22;37422;51.402;0.016;2022-08-21T14:28:34;33.80;50.10
44579;DHT22;37422;51.402;0.016;2022-08-21T14:31:18;34.20;50.90
44579;DHT22;37422;51.402;0.016;2022-08-21T14:33:47;34.40;50.60
44579;DHT22;37422;51.402;0.016;2022-08-21T14:36:15;34.60;50.90
44579;DHT22;37422;51.402;0.016;2022-08-21T14:38:44;34.60;49.90
44579;DHT22;37422;51.402;0.016;2022-08-21T14:41:16;34.40;50.10
44579;DHT22;37422;51.402;0.016;2022-08-21T14:43:45;34.20;50.00
44579;DHT22;37422;51.402;0.016;2022-08-21T14:46:28;34.00;49.70
44579;DHT22;37422;51.402;0.016;2022-08-21T14:48:56;33.40;49.60
44579;DHT22;37422;51.402;0.016;2022-08-21T14:51:24;32.60;49.50
44579;DHT22;37422;51.402;0.016;2022-08-21T14:53:52;32.00;50.30
44579;DHT22;37422;51.402;0.016;2022-08-21T14:56:21;31.40;50.30
44579;DHT22;37422;51.402;0.016;2022-08-21T14:58:50;30.80;50.50
44579;DHT22;37422;51.402;0.016;2022-08-21T15:01:23;30.10;50.70
44579;DHT22;37422;51.402;0.016;2022-08-21T15:03:53;29.80;50.90
44579;DHT22;37422;51.402;0.016;2022-08-21T15:06:23;29.90;50.90
44579;DHT22;37422;51.402;0.016;2022-08-21T15:08:57;30.30;50.90
44579;DHT22;37422;51.402;0.016;2022-08-21T15:11:27;30.80;50.40
44579;DHT22;37422;51.402;0.016;2022-08-21T15:14:20;31.10;50.30
44579;DHT22;37422;51.402;0.016;2022-08-21T15:16:51;31.50;49.60
44579;DHT22;37422;51.402;0.016;2022-08-21T15:19:20;31.60;49.90
44579;DHT22;37422;51.402;0.016;2022-08-21T15:21:49;31.50;50.20
44579;DHT22;37422;51.402;0.016;2022-08-21T15:24:19;31.40;50.00
44579;DHT22;37422;51.402;0.016;2022-08-21T15:26:47;31.40;49.80
44579;DHT22;37422;51.402;0.016;2022-08-21T15:29:21;31.70;49.80
44579;DHT22;37422;51.402;0.016;2022-08-21T15:31:55;32.20;49.30
44579;DHT22;37422;51.402;0.016;2022-08-21T15:34:28;32.50;48.60
44579;DHT22;37422;51.402;0.016;2022-08-21T15:36:57;32.70;48.20
44579;DHT22;37422;51.402;0.016;2022-08-21T15:39:26;32.80;48.80
44579;DHT22;37422;51.402;0.016;2022-08-21T15:41:58;33.00;48.70
44579;DHT22;37422;51.402;0.016;2022-08-21T15:44:40;33.10;48.70
44579;DHT22;37422;51.402;0.016;2022-08-21T15:47:28;33.20;48.30
44579;DHT22;37422;51.402;0.016;2022-08-21T15:49:57;33.40;47.80
44579;DHT22;37422;51.402;0.016;2022-08-21T15:52:34;33.30;47.70
44579;DHT22;37422;51.402;0.016;2022-08-21T15:55:05;33.00;47.90
44579;DHT22;37422;51.402;0.016;2022-08-21T15:57:47;32.30;47.10
44579;DHT22;37422;51.402;0.016;2022-08-21T16:00:25;31.50;48.40
44579;DHT22;37422;51.402;0.016;2022-08-21T16:03:04;30.60;48.70
44579;DHT22;37422;51.402;0.016;2022-08-21T16:05:43;29.80;48.90
44579;DHT22;37422;51.402;0.016;2022-08-21T16:08:21;29.10;49.20
44579;DHT22;37422;51.402;0.016;2022-08-21T16:10:52;28.60;49.80
44579;DHT22;37422;51.402;0.016;2022-08-21T16:13:29;28.00;50.00
44579;DHT22;37422;51.402;0.016;2022-08-21T16:15:58;27.70;50.80
44579;DHT22;37422;51.402;0.016;2022-08-21T16:18:26;27.30;50.70
44579;DHT22;37422;51.402;0.016;2022-08-21T16:21:00;27.10;51.00
44579;DHT22;37422;51.402;0.016;2022-08-21T16:23:49;26.90;51.40
44579;DHT22;37422;51.402;0.016;2022-08-21T16:26:18;26.60;51.30
44579;DHT22;37422;51.402;0.016;2022-08-21T16:28:55;26.50;51.60
44579;DHT22;37422;51.402;0.016;2022-08-21T16:31:36;26.30;51.90
44579;DHT22;37422;51.402;0.016;2022-08-21T16:34:03;26.10;52.00
44579;DHT22;37422;51.402;0.016;2022-08-21T16:36:34;26.00;52.20
44579;DHT22;37422;51.402;0.016;2022-08-21T16:39:02;25.90;53.30
44579;DHT22;37422;51.402;0.016;2022-08-21T16:41:34;25.70;52.30
44579;DHT22;37422;51.402;0.016;2022-08-21T16:44:07;25.60;52.60
44579;DHT22;37422;51.402;0.016;2022-08-21T16:46:42;25.50;53.00
44579;DHT22;37422;51.402;0.016;2022-08-21T16:49:13;25.40;53.30
44579;DHT22;37422;51.402;0.016;2022-08-21T16:51:44;25.30;53.20
44579;DHT22;37422;51.402;0.016;2022-08-21T16:54:14;25.20;53.40
44579;DHT22;37422;51.402;0.016;2022-08-21T16:56:46;25.10;53.40
44579;DHT22;37422;51.402;0.016;2022-08-21T16:59:20;25.00;53.60
44579;DHT22;37422;51.402;0.016;2022-08-21T17:01:52;24.90;53.70
44579;DHT22;37422;51.402;0.016;2022-08-21T17:04:28;24.90;54.20
44579;DHT22;37422;51.402;0.016;2022-08-21T17:06:58;24.80;54.20
44579;DHT22;37422;51.402;0.016;2022-08-21T17:09:27;24.70;54.70
44579;DHT22;37422;51.402;0.016;2022-08-21T17:12:00;24.50;55.80
44579;DHT22;37422;51.402;0.016;2022-08-21T17:14:37;24.30;59.00
44579;DHT22;37422;51.402;0.016;2022-08-21T17:17:09;24.20;57.10
44579;DHT22;37422;51.402;0.016;2022-08-21T17:19:38;24.00;58.70
44579;DHT22;37422;51.402;0.016;2022-08-21T17:22:17;23.80;59.10
44579;DHT22;37422;51.402;0.016;2022-08-21T17:24:46;23.70;59.90
44579;DHT22;37422;51.402;0.016;2022-08-21T17:27:39;23.60;59.80